»·PEaware :: DAL1194 KSLC-KPDX

DAL1194 :: KSLC-KPDX

FLIGHT INFORMATION

Flight Status: Arrived
Operator:
Delta Air Lines
More flights by this operator :: More flights under this callsign
Pilot: Joe P. (13940)
Aircraft: BOEING 737-700
(B737)
More flights by this aircraft type
Origin: KSLC Salt Lake City Intl
United States
Destination: KPDX Portland Intl
United States
More flights between these airports :: More routes between these airports
Route: CGULL1 TWF J15 BOI J163 BKE JOTBA HHOOD4
File this flight plan on PilotEdge
Remarks: KSEA -PBN / A1B1C1D1L1O1S1 NAV / RNVD1E2A1 DOF / 180813 REG / N389DA EET / KZSE0056 RVR / 200 PER / C
Altitude:
(Current/Filed)
360ft
Speed:
(Current/Filed)
455kts
Departed: 13-Aug-18 12:50 PM
Arrived: 13-Aug-18 02:20 PM
Distance/Time
Traveled:
546nm/1:30
Distance/Time
To Go:
Arrived

Flight Plot

Page will automatically refresh every two minutes.

Flight plan parsing failed; only flown route is shown


Map Options




Map Legend


Flown Route
Filed Route
Departure Airport
Arrival Airport
Navaid (VOR, NDB)
Fix

Horizontal Profiles

Position Reports

Time Latitude Longitude Heading Altitude Ground
Speed
13-Aug-18 11:54 40.789075 -111.985536 130 4235ft 0kts
13-Aug-18 11:55 40.789075 -111.985536 130 4235ft 0kts
13-Aug-18 11:56 40.789075 -111.985536 130 4235ft 0kts
13-Aug-18 11:57 40.789075 -111.985536 130 4235ft 0kts
13-Aug-18 11:58 40.789075 -111.985536 130 4235ft 0kts
13-Aug-18 11:59 40.789075 -111.985536 130 4235ft 0kts
13-Aug-18 12:00 40.789075 -111.985536 130 4235ft 0kts
13-Aug-18 12:01 40.789075 -111.985536 130 4235ft 0kts
13-Aug-18 12:02 40.789075 -111.985536 130 4235ft 0kts
13-Aug-18 12:03 40.789075 -111.985536 130 4235ft 0kts
13-Aug-18 12:04 40.789075 -111.985536 130 4235ft 0kts
13-Aug-18 12:05 40.789075 -111.985536 130 4235ft 0kts
13-Aug-18 12:06 40.789075 -111.985536 130 4235ft 0kts
13-Aug-18 12:07 40.789075 -111.985536 130 4235ft 0kts
13-Aug-18 12:08 40.789075 -111.985536 130 4235ft 0kts
13-Aug-18 12:09 40.789075 -111.985536 130 4235ft 0kts
13-Aug-18 12:10 40.789075 -111.985536 130 4235ft 0kts
13-Aug-18 12:11 40.789075 -111.985536 130 4235ft 0kts
13-Aug-18 12:12 40.789075 -111.985536 130 4235ft 0kts
13-Aug-18 12:13 40.789075 -111.985536 130 4235ft 0kts
13-Aug-18 12:14 40.789075 -111.985536 130 4235ft 0kts
13-Aug-18 12:15 40.789075 -111.985536 130 4235ft 0kts
13-Aug-18 12:16 40.789075 -111.985536 130 4235ft 0kts
13-Aug-18 12:17 40.789075 -111.985536 130 4235ft 0kts
13-Aug-18 12:18 40.789075 -111.985536 130 4235ft 0kts
13-Aug-18 12:19 40.789075 -111.985536 130 4235ft 0kts
13-Aug-18 12:20 40.789075 -111.985536 130 4235ft 0kts
13-Aug-18 12:21 40.789075 -111.985536 130 4235ft 0kts
13-Aug-18 12:22 40.789075 -111.985536 130 4235ft 0kts
13-Aug-18 12:23 40.789075 -111.985536 130 4235ft 0kts
13-Aug-18 12:24 40.789075 -111.985536 130 4235ft 0kts
13-Aug-18 12:25 40.789075 -111.985536 130 4235ft 0kts
13-Aug-18 12:26 40.789075 -111.985536 130 4235ft 0kts
13-Aug-18 12:27 40.789075 -111.985536 130 4235ft 0kts
13-Aug-18 12:28 40.789075 -111.985536 130 4235ft 0kts
13-Aug-18 12:29 40.789075 -111.985536 130 4235ft 0kts
13-Aug-18 12:30 40.789075 -111.985536 130 4235ft 0kts
13-Aug-18 12:31 40.789075 -111.985536 130 4235ft 0kts
13-Aug-18 12:32 40.789075 -111.985536 130 4235ft 0kts
13-Aug-18 12:33 40.789368 -111.985942 140 4235ft 2kts
13-Aug-18 12:34 40.789763 -111.986062 238 4235ft 2kts
13-Aug-18 12:35 40.789898 -111.985774 238 4235ft 0kts
13-Aug-18 12:36 40.789898 -111.985774 238 4235ft 0kts
13-Aug-18 12:37 40.789897 -111.985775 238 4235ft 0kts
13-Aug-18 12:38 40.789896 -111.985776 238 4235ft 0kts
13-Aug-18 12:39 40.789896 -111.985778 238 4235ft 0kts
13-Aug-18 12:40 40.789895 -111.985780 238 4235ft 0kts
13-Aug-18 12:41 40.789894 -111.985781 238 4235ft 0kts
13-Aug-18 12:42 40.790991 -111.986612 17 4235ft 12kts
13-Aug-18 12:43 40.791456 -111.986344 17 4235ft 0kts
13-Aug-18 12:44 40.791466 -111.987927 266 4235ft 18kts
13-Aug-18 12:45 40.791057 -111.992657 262 4235ft 4kts
13-Aug-18 12:46 40.789738 -111.995031 174 4235ft 15kts
13-Aug-18 12:47 40.784441 -111.994284 172 4235ft 22kts
13-Aug-18 12:48 40.778665 -111.994256 176 4235ft 22kts
13-Aug-18 12:49 40.775396 -111.994107 229 4235ft 0kts
13-Aug-18 12:50 40.775384 -111.994128 233 4235ft 1kts
13-Aug-18 12:51 40.782067 -111.996380 354 4235ft 108kts
13-Aug-18 12:52 40.829372 -112.002983 336 6098ft 193kts
13-Aug-18 12:53 40.885579 -112.040661 332 7553ft 268kts
13-Aug-18 12:54 40.947223 -112.096790 299 10306ft 285kts
13-Aug-18 12:55 40.986085 -112.199696 296 11899ft 348kts
13-Aug-18 12:56 41.030821 -112.320246 295 14194ft 372kts
13-Aug-18 12:57 41.087310 -112.437061 318 16641ft 390kts
13-Aug-18 12:58 41.179395 -112.518633 322 18904ft 405kts
13-Aug-18 12:59 41.269480 -112.611717 317 20938ft 416kts
13-Aug-18 13:00 41.350112 -112.724871 309 22751ft 426kts
13-Aug-18 13:01 41.430045 -112.843752 308 24353ft 436kts
13-Aug-18 13:02 41.510067 -112.966680 308 25872ft 443kts
13-Aug-18 13:03 41.591491 -113.092300 308 27279ft 450kts
13-Aug-18 13:04 41.674397 -113.219936 308 28535ft 457kts
13-Aug-18 13:05 41.757897 -113.349017 307 29861ft 457kts
13-Aug-18 13:06 41.840301 -113.477213 307 31528ft 450kts
13-Aug-18 13:07 41.921329 -113.603880 306 33042ft 445kts
13-Aug-18 13:08 42.001421 -113.729177 306 34466ft 440kts
13-Aug-18 13:09 42.080305 -113.853700 306 35781ft 435kts
13-Aug-18 13:10 42.158959 -113.978510 306 36111ft 437kts
13-Aug-18 13:11 42.237173 -114.102440 305 36115ft 433kts
13-Aug-18 13:12 42.315590 -114.226439 305 36117ft 433kts
13-Aug-18 13:13 42.393370 -114.350552 305 36121ft 433kts
13-Aug-18 13:14 42.470886 -114.474962 305 36120ft 431kts
13-Aug-18 13:15 42.549845 -114.597839 306 36121ft 431kts
13-Aug-18 13:16 42.628665 -114.720317 305 36123ft 431kts
13-Aug-18 13:17 42.707425 -114.843361 305 36122ft 430kts
13-Aug-18 13:18 42.785938 -114.965356 305 36124ft 429kts
13-Aug-18 13:19 42.864458 -115.088391 305 36114ft 428kts
13-Aug-18 13:20 42.942444 -115.211277 305 36101ft 428kts
13-Aug-18 13:21 43.020392 -115.334680 304 36087ft 428kts
13-Aug-18 13:22 43.097853 -115.457851 304 36070ft 427kts
13-Aug-18 13:23 43.175144 -115.581277 304 36063ft 426kts
13-Aug-18 13:24 43.252065 -115.704643 304 36061ft 425kts
13-Aug-18 13:25 43.328859 -115.828331 303 36061ft 425kts
13-Aug-18 13:26 43.405501 -115.951783 303 36059ft 424kts
13-Aug-18 13:27 43.481530 -116.075562 303 36054ft 423kts
13-Aug-18 13:28 43.558539 -116.198437 308 36050ft 428kts
13-Aug-18 13:29 43.647836 -116.308442 311 36048ft 430kts
13-Aug-18 13:30 43.737269 -116.418147 310 36045ft 430kts
13-Aug-18 13:31 43.826721 -116.528270 311 36049ft 431kts
13-Aug-18 13:32 43.916507 -116.638630 311 36054ft 431kts
13-Aug-18 13:33 44.006177 -116.749682 310 36069ft 431kts
13-Aug-18 13:34 44.095398 -116.860766 311 36080ft 431kts
13-Aug-18 13:35 44.184643 -116.972388 311 36092ft 431kts
13-Aug-18 13:36 44.273800 -117.084385 311 36103ft 431kts
13-Aug-18 13:37 44.363192 -117.197168 311 36114ft 432kts
13-Aug-18 13:38 44.452063 -117.309778 311 36127ft 432kts
13-Aug-18 13:39 44.541295 -117.423338 311 36135ft 433kts
13-Aug-18 13:40 44.630621 -117.537209 311 36142ft 434kts
13-Aug-18 13:41 44.719590 -117.651383 311 36146ft 433kts
13-Aug-18 13:42 44.808221 -117.766397 307 36145ft 431kts
13-Aug-18 13:43 44.852450 -117.914661 278 36149ft 411kts
13-Aug-18 13:44 44.874426 -118.073326 277 36151ft 414kts
13-Aug-18 13:45 44.895247 -118.232735 277 36151ft 413kts
13-Aug-18 13:46 44.916182 -118.392571 277 36153ft 414kts
13-Aug-18 13:47 44.936856 -118.553280 277 36151ft 416kts
13-Aug-18 13:48 44.957062 -118.713833 277 36152ft 417kts
13-Aug-18 13:49 44.977119 -118.875688 277 36149ft 417kts
13-Aug-18 13:50 44.996875 -119.037263 277 36122ft 418kts
13-Aug-18 13:51 45.016520 -119.199967 277 36115ft 420kts
13-Aug-18 13:52 45.035875 -119.362330 277 36110ft 421kts
13-Aug-18 13:53 45.055126 -119.525865 277 36107ft 421kts
13-Aug-18 13:54 45.074191 -119.689943 277 36104ft 422kts
13-Aug-18 13:55 45.092997 -119.853903 277 35272ft 421kts
13-Aug-18 13:56 45.111622 -120.018487 277 32294ft 425kts
13-Aug-18 13:57 45.130253 -120.182174 277 29985ft 415kts
13-Aug-18 13:58 45.147626 -120.340948 277 27870ft 404kts
13-Aug-18 13:59 45.165906 -120.496595 284 25791ft 397kts
13-Aug-18 14:00 45.212444 -120.638034 297 23732ft 394kts
13-Aug-18 14:01 45.264988 -120.773598 297 21700ft 390kts
13-Aug-18 14:02 45.316514 -120.908287 297 19682ft 386kts
13-Aug-18 14:03 45.367278 -121.041945 297 17696ft 381kts
13-Aug-18 14:04 45.416685 -121.172043 297 15931ft 367kts
13-Aug-18 14:05 45.449360 -121.306201 284 14295ft 353kts
13-Aug-18 14:06 45.474954 -121.437779 285 12803ft 335kts
13-Aug-18 14:07 45.499501 -121.561521 285 11505ft 309kts
13-Aug-18 14:08 45.521546 -121.674258 284 10558ft 276kts
13-Aug-18 14:09 45.532054 -121.771974 272 10004ft 232kts
13-Aug-18 14:10 45.535035 -121.865438 272 8449ft 239kts
13-Aug-18 14:11 45.538359 -121.960951 273 6858ft 242kts
13-Aug-18 14:12 45.535588 -122.055963 240 5268ft 243kts
13-Aug-18 14:13 45.516729 -122.144914 247 4347ft 216kts
13-Aug-18 14:14 45.492970 -122.220038 259 4362ft 197kts
13-Aug-18 14:15 45.502033 -122.293268 306 3899ft 184kts
13-Aug-18 14:16 45.506625 -122.367014 290 3170ft 209kts
13-Aug-18 14:17 45.532705 -122.436581 300 2080ft 186kts
13-Aug-18 14:18 45.555204 -122.494113 300 1180ft 148kts
13-Aug-18 14:19 45.574361 -122.543262 298 392ft 133kts
13-Aug-18 14:20 45.588922 -122.580655 297 26ft 48kts
13-Aug-18 14:21 45.590073 -122.584877 277 26ft 0kts
13-Aug-18 14:22 45.590217 -122.586554 274 26ft 13kts
13-Aug-18 14:23 45.590624 -122.590780 299 26ft 14kts
13-Aug-18 14:24 45.591263 -122.594133 206 26ft 0kts
13-Aug-18 14:25 45.591263 -122.594133 206 26ft 0kts
13-Aug-18 14:26 45.591263 -122.594133 206 26ft 0kts
13-Aug-18 14:27 45.591263 -122.594133 206 26ft 0kts
13-Aug-18 14:28 45.591263 -122.594133 206 26ft 0kts
13-Aug-18 14:29 45.591263 -122.594133 206 26ft 0kts
13-Aug-18 14:30 45.591263 -122.594133 206 26ft 0kts
13-Aug-18 14:31 45.591263 -122.594133 206 26ft 0kts
13-Aug-18 14:32 45.591263 -122.594133 206 26ft 0kts
13-Aug-18 14:33 45.591263 -122.594133 206 26ft 0kts
13-Aug-18 14:34 45.591263 -122.594133 206 26ft 0kts
13-Aug-18 14:35 45.591263 -122.594133 206 26ft 0kts

Navigation Log

Ident Type
Flight plan parsing failed, navigation log unavailable